Time;durP1;ratioP1;P1;durP2;ratioP2;P2;SDS_P1;SDS_P2;PMS_P1;PMS_P2;Temp;Humidity;BMP_temperature;BMP_pressure;BME280_temperature;BME280_humidity;BME280_pressure;Samples;Min_cycle;Max_cycle;Signal;HPM_P1;HPM_P2
2022/09/13 00:03:19;;;;;;;12.40;5.40;;;;;;;11.61;73.84;98853.18;106482;1274;22552;-86
2022/09/13 00:06:04;;;;;;;;;;;;;;;;;;;;;
2022/09/13 00:09:04;;;;;;;;;;;;;;;;;;;;;
2022/09/13 00:12:32;;;;;;;;;;;;;;;;;;;;;
2022/09/13 00:15:33;;;;;;;12.40;5.70;;;;;;;11.47;73.87;98838.30;105984;1278;22774;-89
2022/09/13 00:18:44;;;;;;;11.70;6.20;;;;;;;11.41;73.91;98837.51;105993;1277;24430;-88
2022/09/13 00:21:53;;;;;;;13.60;5.90;;;;;;;11.35;73.88;98838.13;105953;1280;22645;-91
2022/09/13 00:24:58;;;;;;;;;;;;;;;;;;;;;
2022/09/13 00:28:08;;;;;;;10.60;4.90;;;;;;;11.26;73.89;98840.80;105714;1284;22763;-88
2022/09/13 00:31:10;;;;;;;12.10;5.90;;;;;;;11.27;73.94;98840.77;105671;1284;24317;-88
2022/09/13 00:34:51;;;;;;;13.80;6.30;;;;;;;11.31;74.25;98838.10;105454;1284;22672;-88
2022/09/13 00:37:39;;;;;;;;;;;;;;;;;;;;;
2022/09/13 00:40:49;;;;;;;;;;;;;;;;;;;;;
2022/09/13 00:44:29;;;;;;;;;;;;;;;;;;;;;
2022/09/13 00:48:28;;;;;;;;;;;;;;;;;;;;;
2022/09/13 00:52:22;;;;;;;9.60;4.90;;;;;;;10.96;73.98;98824.66;105304;1285;25425;-88
2022/09/13 00:55:14;;;;;;;;;;;;;;;;;;;;;
2022/09/13 00:58:58;;;;;;;;;;;;;;;;;;;;;
2022/09/13 01:02:12;;;;;;;11.00;5.60;;;;;;;10.94;74.44;98813.75;105548;1284;25404;-87
2022/09/13 01:06:01;;;;;;;11.70;5.90;;;;;;;10.87;74.23;98811.95;105754;1280;22552;-90
2022/09/13 01:09:32;;;;;;;;;;;;;;;;;;;;;
2022/09/13 01:13:23;;;;;;;;;;;;;;;;;;;;;
2022/09/13 01:17:01;;;;;;;11.70;5.60;;;;;;;10.70;74.37;98807.06;104539;1291;25566;-86
2022/09/13 01:21:15;;;;;;;11.40;5.40;;;;;;;10.70;74.31;98802.96;104535;1292;23374;-88
2022/09/13 01:24:48;;;;;;;;;;;;;;;;;;;;;
2022/09/13 01:28:20;;;;;;;;;;;;;;;;;;;;;
2022/09/13 01:31:50;;;;;;;10.20;5.10;;;;;;;10.60;74.36;98787.75;104252;1298;22565;-88
2022/09/13 01:35:25;;;;;;;;;;;;;;;;;;;;;
2022/09/13 01:39:59;;;;;;;10.50;5.20;;;;;;;10.40;74.31;98783.85;103955;1300;25754;-87
2022/09/13 01:47:12;;;;;;;;;;;;;;;;;;;;;
2022/09/13 01:51:06;;;;;;;15.40;6.10;;;;;;;10.58;74.97;98772.19;103431;1304;24243;-90
2022/09/13 01:55:18;;;;;;;12.40;6.80;;;;;;;10.65;74.92;98766.36;104024;1300;23994;-88
2022/09/13 01:58:38;;;;;;;;;;;;;;;;;;;;;
2022/09/13 02:02:50;;;;;;;19.00;6.70;;;;;;;10.71;74.93;98758.72;104270;1294;24328;-87
2022/09/13 02:06:32;;;;;;;15.30;7.50;;;;;;;10.76;75.01;98754.45;104048;1300;22562;-88
2022/09/13 02:09:45;;;;;;;14.00;6.30;;;;;;;10.84;74.96;98749.88;104269;1291;25572;-88
2022/09/13 02:13:26;;;;;;;12.80;6.80;;;;;;;10.94;75.00;98743.56;104809;1287;22567;-89
2022/09/13 02:16:47;;;;;;;;;;;;;;;;;;;;;
2022/09/13 02:20:14;;;;;;;13.90;6.90;;;;;;;11.03;75.01;98733.79;104420;1291;23948;-89
2022/09/13 02:23:24;;;;;;;15.30;6.60;;;;;;;11.04;75.01;98732.42;104845;1287;22738;-88
2022/09/13 02:26:17;;;;;;;14.20;7.30;;;;;;;11.04;75.04;98733.46;104971;1289;25494;-86
2022/09/13 02:29:19;;;;;;;15.60;7.20;;;;;;;11.04;74.98;98727.84;105025;1288;24307;-86
2022/09/13 02:32:46;;;;;;;14.90;7.40;;;;;;;11.06;74.98;98720.89;105022;1287;24560;-88
2022/09/13 02:36:07;;;;;;;21.00;7.40;;;;;;;11.08;75.14;98716.25;104336;1292;25328;-88
2022/09/13 02:39:28;;;;;;;19.40;7.10;;;;;;;11.10;75.18;98716.43;104388;1292;22970;-89
2022/09/13 02:43:05;;;;;;;16.30;7.40;;;;;;;11.13;75.20;98712.31;104580;1291;22573;-88
2022/09/13 02:47:01;;;;;;;16.40;7.50;;;;;;;11.13;75.17;98707.52;104146;1297;25407;-88
2022/09/13 02:50:44;;;;;;;14.70;7.60;;;;;;;11.09;74.96;98703.17;103863;1303;22560;-89
2022/09/13 02:53:57;;;;;;;13.40;6.90;;;;;;;11.06;75.02;98699.65;103343;1303;22565;-89
2022/09/13 02:57:56;;;;;;;12.90;7.20;;;;;;;11.08;75.23;98696.35;103892;1300;23081;-86
2022/09/13 03:01:07;;;;;;;16.10;7.50;;;;;;;11.09;75.13;98697.47;104059;1294;22585;-90
2022/09/13 03:03:53;;;;;;;12.70;6.40;;;;;;;11.09;75.19;98693.75;104280;1294;25273;-87
2022/09/13 03:06:55;;;;;;;;;;;;;;;;;;;;;
2022/09/13 03:10:29;;;;;;;17.60;7.50;;;;;;;11.08;75.24;98685.06;104349;1294;25614;-86
2022/09/13 03:14:30;;;;;;;16.10;7.70;;;;;;;11.05;75.01;98681.77;104557;1290;26509;-88
2022/09/13 03:18:25;;;;;;;15.50;6.60;;;;;;;11.01;75.12;98673.93;104479;1294;25251;-87
2022/09/13 03:21:46;;;;;;;;;;;;;;;;;;;;;
2022/09/13 03:25:29;;;;;;;;;;;;;;;;;;;;;
2022/09/13 03:29:31;;;;;;;13.80;6.70;;;;;;;10.99;75.27;98659.08;105321;1283;25370;-87
2022/09/13 03:32:30;;;;;;;13.30;7.50;;;;;;;10.94;75.44;98655.61;105120;1283;22564;-91
2022/09/13 03:35:58;;;;;;;;;;;;;;;;;;;;;
2022/09/13 03:38:50;;;;;;;;;;;;;;;;;;;;;
2022/09/13 03:41:36;;;;;;;15.30;6.70;;;;;;;10.69;75.34;98643.88;105203;1283;25449;-88
2022/09/13 03:44:41;;;;;;;13.10;5.60;;;;;;;10.67;75.17;98644.38;105307;1286;24224;-87
2022/09/13 03:47:56;;;;;;;15.60;6.00;;;;;;;10.68;75.34;98642.38;105411;1278;22543;-89
2022/09/13 03:50:41;;;;;;;14.20;6.70;;;;;;;10.70;75.51;98639.17;105896;1277;24405;-89
2022/09/13 03:53:52;;;;;;;14.30;6.30;;;;;;;10.71;75.53;98637.30;105825;1278;25378;-87
2022/09/13 03:57:29;;;;;;;12.50;5.70;;;;;;;10.72;75.53;98635.48;106348;1271;22757;-88
2022/09/13 04:00:11;;;;;;;13.30;5.80;;;;;;;10.72;75.54;98639.88;106428;1272;22508;-89
2022/09/13 04:03:24;;;;;;;12.50;5.20;;;;;;;10.75;75.73;98637.31;106307;1271;22533;-88
2022/09/13 04:06:54;;;;;;;10.20;5.00;;;;;;;10.81;75.92;98637.56;106348;1273;22842;-88
2022/09/13 04:10:01;;;;;;;9.90;4.90;;;;;;;10.94;76.07;98633.17;105868;1280;22545;-87
2022/09/13 04:12:59;;;;;;;9.70;5.20;;;;;;;11.04;76.07;98629.98;105835;1280;25373;-88
2022/09/13 04:16:02;;;;;;;11.80;5.20;;;;;;;11.14;75.98;98631.91;105654;1280;22577;-87
2022/09/13 04:18:47;;;;;;;10.40;4.50;;;;;;;11.23;76.08;98631.16;105798;1280;24182;-87
2022/09/13 04:22:18;;;;;;;;;;;;;;;;;;;;;
2022/09/13 04:26:12;;;;;;;10.20;4.00;;;;;;;11.45;76.07;98627.08;105894;1280;22546;-90
2022/09/13 04:29:03;;;;;;;;;;;;;;;;;;;;;
2022/09/13 04:32:10;;;;;;;8.70;4.30;;;;;;;11.65;76.25;98623.20;105764;1279;22544;-88
2022/09/13 04:35:03;;;;;;;14.80;4.90;;;;;;;11.70;76.07;98626.20;105675;1280;22541;-86
2022/09/13 04:37:58;;;;;;;13.00;5.00;;;;;;;11.76;76.09;98633.56;105822;1280;25450;-89
2022/09/13 04:41:04;;;;;;;10.10;5.30;;;;;;;11.82;76.20;98634.14;105705;1280;22591;-87
2022/09/13 04:44:52;;;;;;;;;;;;;;;;;;;;;
2022/09/13 04:48:14;;;;;;;;;;;;;;;;;;;;;
2022/09/13 04:51:36;;;;;;;11.20;4.20;;;;;;;12.10;76.02;98621.52;105259;1285;22593;-86
2022/09/13 04:55:35;;;;;;;9.00;4.30;;;;;;;12.20;76.12;98617.68;105192;1285;25529;-87
2022/09/13 04:58:58;;;;;;;13.00;4.80;;;;;;;12.28;76.11;98616.34;105318;1285;22575;-89
2022/09/13 05:02:46;;;;;;;8.80;4.20;;;;;;;12.33;76.03;98618.52;105290;1285;26927;-87
2022/09/13 05:06:19;;;;;;;11.70;4.50;;;;;;;12.41;76.04;98613.39;105160;1285;23804;-89
2022/09/13 05:09:34;;;;;;;;;;;;;;;;;;;;;
2022/09/13 05:13:08;;;;;;;12.20;4.60;;;;;;;12.66;76.25;98607.23;104086;1298;24392;-88
2022/09/13 05:16:06;;;;;;;;;;;;;;;;;;;;;
2022/09/13 05:20:18;;;;;;;11.60;4.30;;;;;;;13.03;76.08;98598.64;104087;1297;24724;-87
2022/09/13 05:23:32;;;;;;;;;;;;;;;;;;;;;
2022/09/13 05:27:09;;;;;;;;;;;;;;;;;;;;;
2022/09/13 05:31:09;;;;;;;10.00;4.40;;;;;;;13.43;75.96;98598.40;104131;1297;24433;-89
2022/09/13 05:34:43;;;;;;;11.10;4.90;;;;;;;13.60;76.00;98591.46;103967;1296;24456;-86
2022/09/13 05:37:47;;;;;;;;;;;;;;;;;;;;;
2022/09/13 05:41:05;;;;;;;11.90;5.80;;;;;;;13.90;75.81;98581.63;103738;1299;22630;-89
2022/09/13 05:45:05;;;;;;;11.80;5.70;;;;;;;13.90;75.68;98579.95;103668;1299;24448;-89
2022/09/13 05:48:05;;;;;;;;;;;;;;;;;;;;;
2022/09/13 05:52:14;;;;;;;9.80;5.10;;;;;;;13.99;75.85;98573.95;105140;1286;22556;-88
2022/09/13 05:54:48;;;;;;;11.50;5.60;;;;;;;14.08;75.80;98578.64;105924;1281;22590;-88
2022/09/13 05:57:39;;;;;;;12.30;5.00;;;;;;;14.15;75.83;98576.05;105933;1281;22612;-87
2022/09/13 06:00:34;;;;;;;13.80;5.80;;;;;;;14.27;75.81;98572.71;105636;1281;25403;-85
2022/09/13 06:03:26;;;;;;;11.50;5.30;;;;;;;14.41;75.76;98564.24;105649;1281;24372;-87
2022/09/13 06:06:19;;;;;;;11.00;4.90;;;;;;;14.62;75.93;98560.00;105652;1281;25329;-86
2022/09/13 06:09:09;;;;;;;9.60;5.20;;;;;;;14.90;76.01;98553.05;105661;1282;25283;-87
2022/09/13 06:12:24;;;;;;;14.20;4.90;;;;;;;15.18;75.84;98552.11;105607;1281;25231;-90
2022/09/13 06:15:26;;;;;;;9.40;4.50;;;;;;;15.30;75.48;98544.04;106230;1274;25544;-88
2022/09/13 06:18:19;;;;;;;9.30;4.40;;;;;;;15.36;75.32;98542.52;106085;1274;25424;-86
2022/09/13 06:22:02;;;;;;;9.70;4.40;;;;;;;15.52;75.30;98542.77;106159;1274;25357;-88
2022/09/13 06:24:57;;;;;;;11.90;4.70;;;;;;;15.71;75.28;98537.79;106339;1274;24404;-86
2022/09/13 06:27:43;;;;;;;9.50;4.50;;;;;;;15.87;75.09;98535.83;106295;1274;22486;-87
2022/09/13 06:30:28;;;;;;;9.80;4.40;;;;;;;16.01;75.12;98532.77;106383;1274;22691;-87
2022/09/13 06:33:19;;;;;;;11.50;4.50;;;;;;;16.13;75.03;98531.36;106167;1274;22525;-89
2022/09/13 06:36:12;;;;;;;13.10;4.70;;;;;;;16.20;74.84;98530.06;106342;1274;22592;-88
2022/09/13 06:39:03;;;;;;;11.00;4.40;;;;;;;16.22;74.81;98535.63;106487;1272;26465;-88
2022/09/13 06:41:40;;;;;;;9.80;4.30;;;;;;;16.26;74.86;98535.39;106132;1274;25232;-88
2022/09/13 06:44:26;;;;;;;13.70;4.30;;;;;;;16.32;74.83;98535.15;106396;1274;25295;-86
2022/09/13 06:47:10;;;;;;;11.50;4.10;;;;;;;16.39;74.85;98534.73;106378;1274;25411;-86
2022/09/13 06:49:54;;;;;;;7.60;3.90;;;;;;;16.54;74.91;98526.88;106219;1274;25331;-88
2022/09/13 06:52:44;;;;;;;8.30;3.20;;;;;;;16.75;74.86;98527.20;106162;1274;25369;-87
2022/09/13 06:55:41;;;;;;;7.70;3.40;;;;;;;16.93;74.65;98526.70;106452;1273;22541;-87
2022/09/13 06:58:28;;;;;;;8.90;3.50;;;;;;;17.08;74.69;98531.84;106423;1273;22596;-88
2022/09/13 07:01:38;;;;;;;10.20;3.20;;;;;;;17.10;74.66;98520.41;106351;1274;24295;-86
2022/09/13 07:04:45;;;;;;;9.20;3.50;;;;;;;17.25;74.69;98512.68;105851;1280;25274;-86
2022/09/13 07:07:33;;;;;;;10.50;3.70;;;;;;;17.37;74.42;98511.17;105789;1280;23969;-89
2022/09/13 07:10:18;;;;;;;10.10;3.60;;;;;;;17.54;74.52;98511.61;105823;1279;24248;-88
2022/09/13 07:13:10;;;;;;;8.60;3.30;;;;;;;17.76;74.35;98507.92;105767;1280;25395;-87
2022/09/13 07:15:52;;;;;;;7.80;3.50;;;;;;;17.91;73.96;98511.50;105775;1280;22698;-87
2022/09/13 07:18:31;;;;;;;11.00;3.30;;;;;;;17.99;73.78;98509.70;105794;1280;22704;-86
2022/09/13 07:21:13;;;;;;;7.60;3.50;;;;;;;18.09;73.72;98512.35;105726;1280;22561;-86
2022/09/13 07:24:05;;;;;;;9.60;4.00;;;;;;;18.04;73.78;98514.39;105776;1280;25456;-90
2022/09/13 07:26:41;;;;;;;11.90;3.80;;;;;;;18.05;74.01;98516.38;105668;1280;25609;-91
2022/09/13 07:29:23;;;;;;;8.50;3.10;;;;;;;18.18;74.24;98520.20;105875;1281;22534;-90
2022/09/13 07:32:14;;;;;;;8.60;3.60;;;;;;;18.34;73.97;98518.98;105793;1280;24393;-86
2022/09/13 07:34:53;;;;;;;7.20;3.20;;;;;;;18.46;73.81;98524.12;105782;1280;25623;-89
2022/09/13 07:37:45;;;;;;;5.60;2.60;;;;;;;18.59;73.64;98516.83;105770;1280;22813;-89
2022/09/13 07:40:34;;;;;;;6.20;2.60;;;;;;;18.69;73.32;98514.98;105957;1274;22660;-87
2022/09/13 07:43:17;;;;;;;7.30;3.50;;;;;;;18.76;73.29;98516.74;106308;1274;25555;-89
2022/09/13 07:46:11;;;;;;;9.40;3.20;;;;;;;18.85;73.44;98522.56;106304;1274;22554;-90
2022/09/13 07:48:56;;;;;;;7.70;2.80;;;;;;;18.94;73.33;98523.12;106134;1274;22557;-86
2022/09/13 07:51:35;;;;;;;6.40;2.90;;;;;;;19.06;73.35;98523.34;106335;1274;22645;-85
2022/09/13 07:54:16;;;;;;;8.40;2.70;;;;;;;19.20;73.26;98517.41;106445;1274;25219;-87
2022/09/13 07:57:06;;;;;;;8.20;2.50;;;;;;;19.35;73.10;98513.98;106400;1274;25486;-88
2022/09/13 07:59:55;;;;;;;8.60;2.90;;;;;;;19.50;73.26;98514.55;106304;1274;24301;-85
2022/09/13 08:02:36;;;;;;;6.80;3.00;;;;;;;19.65;72.82;98507.02;106443;1274;25552;-86
2022/09/13 08:05:17;;;;;;;8.20;3.00;;;;;;;19.77;73.02;98507.60;106124;1274;24246;-84
2022/09/13 08:08:20;;;;;;;;;;;;;;;;;;;;;
2022/09/13 08:11:19;;;;;;;6.50;2.50;;;;;;;19.98;72.58;98510.90;106321;1274;25409;-86
2022/09/13 08:14:04;;;;;;;7.40;2.60;;;;;;;20.06;72.60;98512.09;106306;1274;25431;-86
2022/09/13 08:17:00;;;;;;;6.00;2.40;;;;;;;20.20;72.55;98514.77;106272;1274;25229;-89
2022/09/13 08:19:52;;;;;;;5.00;2.20;;;;;;;20.39;72.45;98513.55;106254;1274;22644;-89
2022/09/13 08:22:39;;;;;;;7.60;2.80;;;;;;;20.58;72.18;98513.55;106343;1274;22804;-89
2022/09/13 08:25:27;;;;;;;7.40;2.70;;;;;;;20.72;72.23;98509.83;106372;1271;22593;-90
2022/09/13 08:28:32;;;;;;;;;;;;;;;;;;;;;
2022/09/13 08:31:48;;;;;;;9.10;2.90;;;;;;;20.54;71.44;98511.55;106582;1274;24240;-86
2022/09/13 08:34:31;;;;;;;9.80;3.20;;;;;;;20.59;71.78;98507.59;105951;1274;22704;-87
2022/09/13 08:37:11;;;;;;;8.30;2.60;;;;;;;20.80;71.95;98503.12;106130;1274;22560;-90
2022/09/13 08:39:54;;;;;;;4.70;2.10;;;;;;;21.08;71.61;98495.11;106484;1274;22770;-87
2022/09/13 08:43:36;;;;;;;;;;;;;;;;;;;;;
2022/09/13 08:46:31;;;;;;;7.30;2.50;;;;;;;20.92;70.74;98500.18;106382;1274;22528;-90
2022/09/13 08:50:06;;;;;;;6.90;2.60;;;;;;;20.75;70.84;98497.55;106334;1274;24311;-86
2022/09/13 08:53:26;;;;;;;6.30;2.70;;;;;;;21.04;71.12;98502.63;105930;1280;25248;-86
2022/09/13 08:56:50;;;;;;;10.40;3.00;;;;;;;21.18;70.70;98494.52;105931;1280;24219;-86
2022/09/13 09:00:30;;;;;;;6.70;2.40;;;;;;;21.10;70.64;98493.45;105688;1280;24387;-85
2022/09/13 09:03:51;;;;;;;7.00;2.70;;;;;;;20.96;70.49;98502.98;105819;1280;25277;-89
2022/09/13 09:06:39;;;;;;;8.30;2.70;;;;;;;21.01;70.70;98504.27;105769;1280;22579;-88
2022/09/13 09:10:43;;;;;;;14.40;3.10;;;;;;;21.09;70.56;98498.25;105734;1279;25521;-86
2022/09/13 09:14:30;;;;;;;5.80;2.70;;;;;;;21.19;70.29;98490.68;105374;1285;24253;-84
2022/09/13 09:17:18;;;;;;;5.70;2.30;;;;;;;21.19;70.16;98484.13;105315;1285;24776;-86
2022/09/13 09:21:04;;;;;;;;;;;;;;;;;;;;;
2022/09/13 09:24:18;;;;;;;7.00;2.60;;;;;;;21.13;69.65;98487.62;105373;1285;22509;-87
2022/09/13 09:27:54;;;;;;;6.30;2.60;;;;;;;21.02;70.00;98491.84;105235;1287;24289;-86
2022/09/13 09:31:31;;;;;;;;;;;;;;;;;;;;;
2022/09/13 09:35:40;;;;;;;;;;;;;;;;;;;;;
2022/09/13 09:39:43;;;;;;;6.80;2.90;;;;;;;20.66;69.95;98468.25;104660;1291;22553;-88
2022/09/13 09:43:17;;;;;;;9.50;2.90;;;;;;;20.66;69.89;98464.13;104514;1291;25253;-87
2022/09/13 09:46:44;;;;;;;7.10;2.40;;;;;;;20.79;70.02;98460.70;104656;1291;24641;-85
2022/09/13 09:50:21;;;;;;;;;;;;;;;;;;;;;
2022/09/13 09:54:15;;;;;;;6.30;2.40;;;;;;;21.04;69.71;98460.61;105160;1287;22516;-87
2022/09/13 09:57:11;;;;;;;;;;;;;;;;;;;;;
2022/09/13 10:00:34;;;;;;;;;;;;;;;;;;;;;
2022/09/13 10:04:11;;;;;;;6.20;2.60;;;;;;;21.25;69.41;98449.94;105115;1287;22568;-84
2022/09/13 10:08:08;;;;;;;6.60;2.70;;;;;;;21.42;69.34;98440.10;104092;1297;25579;-84
2022/09/13 10:11:02;;;;;;;6.50;2.60;;;;;;;21.50;69.15;98432.24;103925;1291;22640;-86
2022/09/13 10:14:15;;;;;;;;;;;;;;;;;;;;;
2022/09/13 10:17:18;;;;;;;6.90;2.60;;;;;;;21.52;68.62;98426.12;104067;1297;25320;-86
2022/09/13 10:20:39;;;;;;;7.10;2.60;;;;;;;21.44;68.54;98423.77;104098;1297;25366;-85
2022/09/13 10:24:04;;;;;;;8.30;2.60;;;;;;;21.39;68.44;98422.86;104075;1297;22689;-84
2022/09/13 10:29:55;;;;;;;6.60;3.00;;;;;;;21.24;68.54;98407.86;107256;1262;22562;-84
2022/09/13 10:32:53;;;;;;;6.00;2.70;;;;;;;21.12;68.39;98409.88;106302;1271;24233;-82
2022/09/13 10:35:24;;;;;;;7.50;2.60;;;;;;;20.96;68.53;98415.67;106167;1271;22570;-86
2022/09/13 10:38:14;;;;;;;6.80;3.10;;;;;;;20.81;68.47;98414.70;106254;1271;22527;-83
2022/09/13 10:41:20;;;;;;;6.60;3.00;;;;;;;20.62;68.66;98419.83;106070;1271;26848;-82
2022/09/13 10:44:00;;;;;;;7.90;2.90;;;;;;;20.44;68.60;98422.84;106135;1274;25293;-83
2022/09/13 10:46:48;;;;;;;8.00;3.40;;;;;;;20.35;68.72;98421.53;106074;1271;25234;-83
2022/09/13 10:49:42;;;;;;;9.20;3.20;;;;;;;20.31;68.71;98417.14;106048;1274;22712;-84
2022/09/13 10:52:46;;;;;;;8.30;2.50;;;;;;;20.31;68.82;98420.44;106043;1274;25500;-81
2022/09/13 10:55:48;;;;;;;6.40;2.90;;;;;;;20.33;68.69;98422.34;106104;1274;25470;-82
2022/09/13 10:58:21;;;;;;;8.20;3.20;;;;;;;20.36;68.59;98419.02;106283;1274;25349;-83
2022/09/13 11:01:01;;;;;;;8.80;3.00;;;;;;;20.46;68.73;98419.23;106286;1272;24214;-81
2022/09/13 11:03:52;;;;;;;7.90;3.00;;;;;;;20.58;68.68;98417.35;106392;1271;22577;-84
2022/09/13 11:07:23;;;;;;;6.50;3.10;;;;;;;20.66;68.58;98411.65;106197;1271;25373;-83
2022/09/13 11:10:24;;;;;;;6.30;2.80;;;;;;;20.73;68.61;98410.23;106040;1272;26686;-83
2022/09/13 11:13:14;;;;;;;8.20;3.20;;;;;;;20.76;68.35;98411.28;105764;1279;25446;-83
2022/09/13 11:16:03;;;;;;;8.40;3.30;;;;;;;20.80;68.34;98411.19;105797;1280;24503;-87
2022/09/13 11:19:19;;;;;;;7.60;2.90;;;;;;;20.84;68.24;98409.52;105842;1280;22547;-82
2022/09/13 11:22:34;;;;;;;7.80;3.30;;;;;;;20.88;68.24;98400.48;105789;1279;24269;-83
2022/09/13 11:25:50;;;;;;;7.30;3.40;;;;;;;20.85;68.10;98391.41;105922;1278;25212;-83
2022/09/13 11:28:28;;;;;;;8.50;2.80;;;;;;;20.91;68.13;98387.02;105672;1280;22540;-86
2022/09/13 11:31:45;;;;;;;6.20;2.40;;;;;;;20.98;68.04;98381.38;105760;1280;25247;-83
2022/09/13 11:34:59;;;;;;;6.50;2.80;;;;;;;21.07;67.91;98379.23;105740;1281;25505;-83
2022/09/13 11:37:54;;;;;;;6.90;2.70;;;;;;;21.22;67.79;98375.63;105808;1280;22564;-87
2022/09/13 11:40:59;;;;;;;6.80;3.10;;;;;;;21.37;67.74;98377.27;105751;1281;22592;-82
2022/09/13 11:44:12;;;;;;;6.00;2.60;;;;;;;21.51;67.68;98375.95;105714;1280;22600;-83
2022/09/13 11:47:59;;;;;;;6.80;2.80;;;;;;;21.61;67.49;98372.38;105684;1280;25328;-83
2022/09/13 11:50:51;;;;;;;6.70;2.70;;;;;;;21.65;67.49;98375.80;105887;1274;25248;-84
2022/09/13 11:54:21;;;;;;;6.60;2.70;;;;;;;21.76;67.64;98368.94;106437;1274;22538;-83
2022/09/13 11:57:00;;;;;;;6.50;3.20;;;;;;;21.85;67.31;98355.79;106475;1274;22553;-85
2022/09/13 12:00:06;;;;;;;7.40;2.90;;;;;;;21.89;67.06;98354.81;106335;1274;24302;-83
2022/09/13 12:03:06;;;;;;;6.50;2.90;;;;;;;21.99;67.22;98351.53;106418;1274;22560;-83
2022/09/13 12:05:48;;;;;;;5.90;2.80;;;;;;;22.17;67.16;98344.41;106431;1274;25480;-86
2022/09/13 12:08:32;;;;;;;10.30;3.10;;;;;;;22.25;66.92;98339.42;106223;1274;24311;-86
2022/09/13 12:11:34;;;;;;;;;;;;;;;;;;;;;
2022/09/13 12:14:32;;;;;;;5.10;2.20;;;;;;;22.35;66.47;98328.98;106425;1272;24239;-84
2022/09/13 12:17:21;;;;;;;7.20;2.50;;;;;;;22.19;66.19;98323.85;106364;1274;25638;-83
2022/09/13 12:20:09;;;;;;;5.50;2.70;;;;;;;22.08;66.28;98322.55;106280;1274;22544;-82
2022/09/13 12:22:51;;;;;;;6.70;2.50;;;;;;;22.07;66.39;98326.22;106310;1274;22540;-82
2022/09/13 12:25:50;;;;;;;7.40;2.80;;;;;;;22.26;66.50;98325.59;106606;1274;23439;-82
2022/09/13 12:28:26;;;;;;;5.90;2.80;;;;;;;22.46;66.27;98316.15;106633;1274;25408;-83
2022/09/13 12:31:29;;;;;;;7.40;3.10;;;;;;;22.60;66.37;98319.84;106527;1274;22591;-84
2022/09/13 12:34:17;;;;;;;7.40;2.90;;;;;;;22.83;66.23;98317.98;105805;1280;22664;-84
2022/09/13 12:37:24;;;;;;;5.80;2.60;;;;;;;23.00;65.84;98313.55;105797;1280;26617;-86
2022/09/13 12:40:17;;;;;;;8.70;2.90;;;;;;;23.10;65.96;98314.89;105743;1280;22553;-83
2022/09/13 12:43:37;;;;;;;6.10;2.70;;;;;;;23.15;65.70;98314.69;105657;1280;22562;-83
2022/09/13 12:46:47;;;;;;;6.90;3.00;;;;;;;23.02;65.39;98313.09;105696;1280;22564;-83
2022/09/13 12:50:42;;;;;;;6.60;3.10;;;;;;;22.91;65.65;98307.59;106025;1280;24296;-82
2022/09/13 12:54:26;;;;;;;9.50;3.10;;;;;;;23.11;65.79;98313.52;105821;1280;26681;-83
2022/09/13 12:57:44;;;;;;;8.20;3.30;;;;;;;23.02;65.07;98310.83;105815;1280;27294;-83
2022/09/13 13:01:54;;;;;;;7.10;2.80;;;;;;;22.97;65.21;98314.04;105922;1280;24083;-83
2022/09/13 13:04:31;;;;;;;7.80;3.10;;;;;;;23.09;65.12;98307.60;105207;1285;25707;-83
2022/09/13 13:07:24;;;;;;;6.80;2.90;;;;;;;23.05;64.96;98305.84;105142;1285;23389;-83
2022/09/13 13:10:33;;;;;;;6.40;2.90;;;;;;;22.95;65.14;98303.48;105379;1281;25577;-84
2022/09/13 13:14:08;;;;;;;7.10;3.00;;;;;;;22.90;64.91;98304.27;105875;1280;23935;-83
2022/09/13 13:16:44;;;;;;;6.50;2.60;;;;;;;22.81;64.54;98301.80;105580;1286;22636;-83
2022/09/13 13:19:49;;;;;;;7.00;3.00;;;;;;;22.66;64.61;98298.41;105240;1285;25417;-83
2022/09/13 13:22:55;;;;;;;8.20;3.40;;;;;;;22.64;64.91;98290.21;105351;1285;24269;-87
2022/09/13 13:26:04;;;;;;;10.00;3.20;;;;;;;22.60;64.82;98283.46;105570;1286;22534;-82
2022/09/13 13:29:52;;;;;;;8.40;3.30;;;;;;;22.69;64.88;98275.10;105305;1286;22557;-84
2022/09/13 13:32:42;;;;;;;7.30;3.40;;;;;;;22.77;64.41;98275.56;105293;1285;5391183;-83
2022/09/13 13:35:55;;;;;;;7.00;3.30;;;;;;;22.73;64.46;98270.89;105358;1286;22550;-84
2022/09/13 13:39:14;;;;;;;;;;;;;;;;;;;;;
2022/09/13 13:42:35;;;;;;;7.20;3.30;;;;;;;22.73;64.36;98258.42;105801;1280;22555;-84
2022/09/13 13:45:55;;;;;;;5.90;3.10;;;;;;;22.57;63.95;98255.83;105582;1280;25434;-84
2022/09/13 13:48:46;;;;;;;6.70;3.20;;;;;;;22.36;64.39;98253.85;105384;1286;24249;-86
2022/09/13 13:51:30;;;;;;;7.80;3.30;;;;;;;22.42;64.66;98243.87;105538;1284;24460;-82
2022/09/13 13:54:52;;;;;;;7.20;3.10;;;;;;;22.44;64.38;98242.31;105857;1280;25250;-83
2022/09/13 13:58:35;;;;;;;8.40;3.40;;;;;;;22.49;64.45;98240.40;105638;1285;23041;-83
2022/09/13 14:02:00;;;;;;;;;;;;;;;;;;;;;
2022/09/13 14:04:59;;;;;;;7.10;2.90;;;;;;;22.94;64.11;98239.35;104660;1290;25293;-82
2022/09/13 14:07:56;;;;;;;6.50;3.30;;;;;;;22.98;64.26;98237.97;104616;1290;25554;-83
2022/09/13 14:11:48;;;;;;;;;;;;;;;;;;;;;
2022/09/13 14:15:02;;;;;;;6.60;2.80;;;;;;;23.02;63.58;98230.64;104560;1290;22575;-84
2022/09/13 14:17:41;;;;;;;7.70;3.10;;;;;;;22.72;63.36;98228.00;104547;1291;25340;-83
2022/09/13 14:20:25;;;;;;;7.80;3.40;;;;;;;22.53;63.69;98223.55;104657;1290;22541;-83
2022/09/13 14:23:34;;;;;;;8.80;3.40;;;;;;;22.44;63.83;98224.41;104480;1290;25247;-82
2022/09/13 14:26:13;;;;;;;8.10;3.20;;;;;;;22.35;63.72;98219.70;104573;1290;25458;-84
2022/09/13 14:28:45;;;;;;;6.60;3.20;;;;;;;22.34;63.92;98219.88;104463;1291;24417;-86
2022/09/13 14:31:23;;;;;;;5.90;2.90;;;;;;;22.41;63.95;98221.76;104521;1291;22572;-85
2022/09/13 14:34:01;;;;;;;8.40;3.20;;;;;;;22.51;63.94;98222.95;104611;1288;25389;-81
2022/09/13 14:36:57;;;;;;;6.30;2.90;;;;;;;22.49;63.62;98225.13;105155;1287;24227;-84
2022/09/13 14:39:29;;;;;;;7.30;3.00;;;;;;;22.46;63.57;98229.73;105108;1287;25397;-84
2022/09/13 14:42:18;;;;;;;6.10;3.10;;;;;;;22.41;63.41;98227.38;105248;1281;24221;-84
2022/09/13 14:44:53;;;;;;;7.00;3.50;;;;;;;22.33;63.37;98219.73;105725;1280;25233;-83
2022/09/13 14:47:32;;;;;;;7.70;3.40;;;;;;;22.23;63.40;98213.36;105719;1280;25475;-82
2022/09/13 14:50:13;;;;;;;6.70;3.20;;;;;;;22.13;63.40;98217.84;105789;1279;24328;-84
2022/09/13 14:53:32;;;;;;;6.70;3.20;;;;;;;22.04;63.55;98211.64;105733;1279;25243;-83
2022/09/13 14:56:39;;;;;;;8.10;3.30;;;;;;;21.91;63.41;98211.52;105386;1283;22779;-82
2022/09/13 14:59:28;;;;;;;7.80;3.20;;;;;;;21.75;63.50;98207.39;105057;1287;23864;-83
2022/09/13 15:02:27;;;;;;;6.10;3.10;;;;;;;21.65;63.36;98204.96;105700;1282;22631;-84
2022/09/13 15:05:14;;;;;;;8.40;3.30;;;;;;;21.61;63.42;98201.50;105634;1282;25580;-85
2022/09/13 15:07:50;;;;;;;8.50;3.50;;;;;;;21.54;63.32;98200.97;105777;1281;24486;-83
2022/09/13 15:10:30;;;;;;;9.00;3.40;;;;;;;21.42;63.40;98204.55;105800;1280;25459;-83
2022/09/13 15:13:31;;;;;;;7.50;3.40;;;;;;;21.33;63.49;98205.33;105922;1279;22540;-85
2022/09/13 15:16:28;;;;;;;9.10;3.50;;;;;;;21.24;63.30;98204.88;105957;1280;25242;-83
2022/09/13 15:19:29;;;;;;;7.90;3.50;;;;;;;21.22;63.56;98209.70;105853;1281;25482;-82
2022/09/13 15:22:27;;;;;;;5.90;2.90;;;;;;;21.22;63.37;98209.32;105642;1282;25591;-84
2022/09/13 15:25:05;;;;;;;5.80;2.70;;;;;;;21.18;63.20;98210.89;105888;1280;25291;-84
2022/09/13 15:27:52;;;;;;;7.10;3.20;;;;;;;21.12;63.14;98214.81;105870;1281;25692;-83
2022/09/13 15:30:37;;;;;;;28.50;17.30;;;;;;;21.08;63.25;98216.61;105969;1279;24382;-83
2022/09/13 15:33:18;;;;;;;111.60;70.20;;;;;;;21.00;63.20;98216.36;105855;1280;24214;-86
2022/09/13 15:36:16;;;;;;;15.30;10.50;;;;;;;20.96;63.27;98214.82;106180;1274;22568;-83
2022/09/13 15:39:27;;;;;;;21.10;13.40;;;;;;;20.90;63.15;98211.35;106346;1274;25486;-86
2022/09/13 15:42:04;;;;;;;8.70;4.60;;;;;;;20.85;63.33;98199.11;106385;1274;22611;-85
2022/09/13 15:44:39;;;;;;;9.40;4.40;;;;;;;20.83;63.32;98201.77;106228;1274;22500;-83
2022/09/13 15:47:21;;;;;;;9.50;3.80;;;;;;;20.75;63.22;98201.66;106524;1274;22647;-83
2022/09/13 15:49:57;;;;;;;7.60;3.40;;;;;;;20.63;63.18;98200.60;106250;1274;22552;-84
2022/09/13 15:52:52;;;;;;;7.10;3.40;;;;;;;20.58;63.26;98200.18;106355;1274;25415;-83
2022/09/13 15:55:33;;;;;;;6.40;3.30;;;;;;;20.53;63.26;98193.59;106249;1274;22706;-84
2022/09/13 15:58:14;;;;;;;10.00;3.90;;;;;;;20.48;63.18;98190.21;106369;1274;25222;-83
2022/09/13 16:01:15;;;;;;;10.00;3.70;;;;;;;20.42;63.34;98192.75;106380;1274;23929;-85